sensor_id;sensor_type;location;lat;lon;timestamp;pressure;altitude;pressure_sealevel;temperature;humidity
51829;BME280;37881;48.024;8.774;2023-03-16T00:02:04;94125.16;;;-0.98;100.00
51829;BME280;37881;48.024;8.774;2023-03-16T00:04:32;94128.97;;;-0.99;100.00
51829;BME280;37881;48.024;8.774;2023-03-16T00:07:07;94122.03;;;-1.01;100.00
51829;BME280;37881;48.024;8.774;2023-03-16T00:09:35;94126.72;;;-0.97;100.00
51829;BME280;37881;48.024;8.774;2023-03-16T00:12:15;94118.66;;;-1.10;100.00
51829;BME280;37881;48.024;8.774;2023-03-16T00:14:46;94118.06;;;-1.03;100.00
51829;BME280;37881;48.024;8.774;2023-03-16T00:17:16;94122.00;;;-1.25;100.00
51829;BME280;37881;48.024;8.774;2023-03-16T00:19:48;94121.44;;;-1.31;100.00
51829;BME280;37881;48.024;8.774;2023-03-16T00:22:17;94124.03;;;-1.22;100.00
51829;BME280;37881;48.024;8.774;2023-03-16T00:24:43;94124.81;;;-1.22;100.00
51829;BME280;37881;48.024;8.774;2023-03-16T00:27:11;94126.59;;;-1.26;100.00
51829;BME280;37881;48.024;8.774;2023-03-16T00:29:50;94123.00;;;-1.30;100.00
51829;BME280;37881;48.024;8.774;2023-03-16T00:32:27;94127.38;;;-1.25;100.00
51829;BME280;37881;48.024;8.774;2023-03-16T00:34:54;94116.06;;;-1.31;100.00
51829;BME280;37881;48.024;8.774;2023-03-16T00:37:22;94124.13;;;-1.31;100.00
51829;BME280;37881;48.024;8.774;2023-03-16T00:39:49;94120.97;;;-1.33;100.00
51829;BME280;37881;48.024;8.774;2023-03-16T00:42:18;94121.44;;;-1.31;100.00
51829;BME280;37881;48.024;8.774;2023-03-16T00:44:45;94117.03;;;-1.48;100.00
51829;BME280;37881;48.024;8.774;2023-03-16T00:47:13;94112.66;;;-1.52;100.00
51829;BME280;37881;48.024;8.774;2023-03-16T00:49:42;94107.94;;;-1.55;100.00
51829;BME280;37881;48.024;8.774;2023-03-16T00:52:10;94110.16;;;-1.70;100.00
51829;BME280;37881;48.024;8.774;2023-03-16T00:54:42;94110.16;;;-1.57;100.00
51829;BME280;37881;48.024;8.774;2023-03-16T00:57:11;94109.19;;;-1.53;100.00
51829;BME280;37881;48.024;8.774;2023-03-16T00:59:38;94111.44;;;-1.55;100.00
51829;BME280;37881;48.024;8.774;2023-03-16T01:02:06;94098.75;;;-1.54;100.00
51829;BME280;37881;48.024;8.774;2023-03-16T01:04:33;94106.50;;;-1.53;100.00
51829;BME280;37881;48.024;8.774;2023-03-16T01:07:03;94100.88;;;-1.60;100.00
51829;BME280;37881;48.024;8.774;2023-03-16T01:09:31;94108.03;;;-1.64;100.00
51829;BME280;37881;48.024;8.774;2023-03-16T01:12:04;94111.97;;;-1.62;100.00
51829;BME280;37881;48.024;8.774;2023-03-16T01:14:32;94104.34;;;-1.59;100.00
51829;BME280;37881;48.024;8.774;2023-03-16T01:17:04;94101.91;;;-1.52;100.00
51829;BME280;37881;48.024;8.774;2023-03-16T01:19:35;94099.97;;;-1.52;100.00
51829;BME280;37881;48.024;8.774;2023-03-16T01:22:06;94091.13;;;-1.52;100.00
51829;BME280;37881;48.024;8.774;2023-03-16T01:24:34;94098.94;;;-1.59;100.00
51829;BME280;37881;48.024;8.774;2023-03-16T01:27:02;94092.00;;;-1.61;100.00
51829;BME280;37881;48.024;8.774;2023-03-16T01:29:30;94102.31;;;-1.63;100.00
51829;BME280;37881;48.024;8.774;2023-03-16T01:31:59;94104.66;;;-1.61;100.00
51829;BME280;37881;48.024;8.774;2023-03-16T01:34:25;94096.94;;;-1.63;100.00
51829;BME280;37881;48.024;8.774;2023-03-16T01:36:52;94095.81;;;-1.62;100.00
51829;BME280;37881;48.024;8.774;2023-03-16T01:39:19;94086.63;;;-1.61;100.00
51829;BME280;37881;48.024;8.774;2023-03-16T01:41:46;94080.78;;;-1.75;100.00
51829;BME280;37881;48.024;8.774;2023-03-16T01:44:22;94088.47;;;-1.86;100.00
51829;BME280;37881;48.024;8.774;2023-03-16T01:46:53;94084.44;;;-1.79;100.00
51829;BME280;37881;48.024;8.774;2023-03-16T01:49:28;94081.88;;;-1.76;100.00
51829;BME280;37881;48.024;8.774;2023-03-16T01:52:07;94077.63;;;-1.77;100.00
51829;BME280;37881;48.024;8.774;2023-03-16T01:54:40;94077.97;;;-1.78;100.00
51829;BME280;37881;48.024;8.774;2023-03-16T01:57:14;94070.53;;;-1.82;100.00
51829;BME280;37881;48.024;8.774;2023-03-16T01:59:53;94069.19;;;-1.88;100.00
51829;BME280;37881;48.024;8.774;2023-03-16T02:02:23;94071.09;;;-1.88;100.00
51829;BME280;37881;48.024;8.774;2023-03-16T02:07:23;94067.69;;;-1.97;100.00
51829;BME280;37881;48.024;8.774;2023-03-16T02:09:52;94071.06;;;-2.01;100.00
51829;BME280;37881;48.024;8.774;2023-03-16T02:12:20;94069.25;;;-2.09;100.00
51829;BME280;37881;48.024;8.774;2023-03-16T02:14:48;94071.72;;;-2.04;100.00
51829;BME280;37881;48.024;8.774;2023-03-16T02:17:18;94070.03;;;-2.08;100.00
51829;BME280;37881;48.024;8.774;2023-03-16T02:20:07;94067.03;;;-2.07;100.00
51829;BME280;37881;48.024;8.774;2023-03-16T02:22:43;94060.19;;;-2.04;100.00
51829;BME280;37881;48.024;8.774;2023-03-16T02:25:12;94058.84;;;-1.98;100.00
51829;BME280;37881;48.024;8.774;2023-03-16T02:27:48;94058.72;;;-2.02;100.00
51829;BME280;37881;48.024;8.774;2023-03-16T02:30:18;94056.84;;;-2.01;100.00
51829;BME280;37881;48.024;8.774;2023-03-16T02:32:45;94049.22;;;-1.99;100.00
51829;BME280;37881;48.024;8.774;2023-03-16T02:35:13;94040.25;;;-2.03;100.00
51829;BME280;37881;48.024;8.774;2023-03-16T02:37:40;94040.13;;;-2.07;100.00
51829;BME280;37881;48.024;8.774;2023-03-16T02:40:18;94049.66;;;-2.09;100.00
51829;BME280;37881;48.024;8.774;2023-03-16T02:43:01;94039.75;;;-2.17;100.00
51829;BME280;37881;48.024;8.774;2023-03-16T02:45:40;94047.81;;;-2.17;100.00
51829;BME280;37881;48.024;8.774;2023-03-16T02:48:12;94046.38;;;-2.15;100.00
51829;BME280;37881;48.024;8.774;2023-03-16T02:50:45;94044.34;;;-2.18;100.00
51829;BME280;37881;48.024;8.774;2023-03-16T02:53:13;94046.59;;;-2.20;100.00
51829;BME280;37881;48.024;8.774;2023-03-16T02:55:40;94038.50;;;-2.20;100.00
51829;BME280;37881;48.024;8.774;2023-03-16T02:58:07;94044.66;;;-2.19;100.00
51829;BME280;37881;48.024;8.774;2023-03-16T03:00:34;94044.56;;;-2.23;100.00
51829;BME280;37881;48.024;8.774;2023-03-16T03:03:00;94040.88;;;-2.18;100.00
51829;BME280;37881;48.024;8.774;2023-03-16T03:05:27;94043.56;;;-2.18;100.00
51829;BME280;37881;48.024;8.774;2023-03-16T03:07:54;94030.78;;;-2.22;100.00
51829;BME280;37881;48.024;8.774;2023-03-16T03:10:21;94029.41;;;-2.28;100.00
51829;BME280;37881;48.024;8.774;2023-03-16T03:12:47;94037.03;;;-2.30;100.00
51829;BME280;37881;48.024;8.774;2023-03-16T03:15:15;94034.91;;;-2.24;100.00
51829;BME280;37881;48.024;8.774;2023-03-16T03:17:43;94042.97;;;-2.24;100.00
51829;BME280;37881;48.024;8.774;2023-03-16T03:20:11;94032.78;;;-2.31;100.00
51829;BME280;37881;48.024;8.774;2023-03-16T03:22:47;94034.09;;;-2.37;100.00
51829;BME280;37881;48.024;8.774;2023-03-16T03:25:16;94034.09;;;-2.37;100.00
51829;BME280;37881;48.024;8.774;2023-03-16T03:27:45;94026.81;;;-2.36;100.00
51829;BME280;37881;48.024;8.774;2023-03-16T03:30:18;94030.16;;;-2.39;100.00
51829;BME280;37881;48.024;8.774;2023-03-16T03:32:46;94032.16;;;-2.49;100.00
51829;BME280;37881;48.024;8.774;2023-03-16T03:35:14;94035.63;;;-2.48;100.00
51829;BME280;37881;48.024;8.774;2023-03-16T03:37:42;94033.72;;;-2.48;100.00
51829;BME280;37881;48.024;8.774;2023-03-16T03:40:12;94036.41;;;-2.48;100.00
51829;BME280;37881;48.024;8.774;2023-03-16T03:42:40;94042.44;;;-2.51;100.00
51829;BME280;37881;48.024;8.774;2023-03-16T03:45:09;94040.53;;;-2.50;100.00
51829;BME280;37881;48.024;8.774;2023-03-16T03:47:39;94046.19;;;-2.64;100.00
51829;BME280;37881;48.024;8.774;2023-03-16T03:50:07;94043.03;;;-2.66;100.00
51829;BME280;37881;48.024;8.774;2023-03-16T03:52:34;94035.88;;;-2.62;100.00
51829;BME280;37881;48.024;8.774;2023-03-16T03:55:01;94035.44;;;-2.64;100.00
51829;BME280;37881;48.024;8.774;2023-03-16T03:57:27;94034.84;;;-2.70;100.00
51829;BME280;37881;48.024;8.774;2023-03-16T03:59:54;94029.38;;;-2.73;100.00
51829;BME280;37881;48.024;8.774;2023-03-16T04:02:21;94025.81;;;-2.65;100.00
51829;BME280;37881;48.024;8.774;2023-03-16T04:04:48;94028.16;;;-2.64;100.00
51829;BME280;37881;48.024;8.774;2023-03-16T04:07:14;94032.91;;;-2.82;100.00
51829;BME280;37881;48.024;8.774;2023-03-16T04:09:41;94025.63;;;-2.81;100.00
51829;BME280;37881;48.024;8.774;2023-03-16T04:12:09;94019.66;;;-2.87;100.00
51829;BME280;37881;48.024;8.774;2023-03-16T04:14:36;94023.19;;;-2.95;100.00
51829;BME280;37881;48.024;8.774;2023-03-16T04:17:03;94022.75;;;-2.97;100.00
51829;BME280;37881;48.024;8.774;2023-03-16T04:19:30;94024.13;;;-2.91;100.00
51829;BME280;37881;48.024;8.774;2023-03-16T04:21:57;94028.03;;;-2.88;100.00
51829;BME280;37881;48.024;8.774;2023-03-16T04:24:23;94021.88;;;-2.89;100.00
51829;BME280;37881;48.024;8.774;2023-03-16T04:26:50;94023.34;;;-2.91;100.00
51829;BME280;37881;48.024;8.774;2023-03-16T04:29:17;94022.53;;;-2.92;100.00
51829;BME280;37881;48.024;8.774;2023-03-16T04:31:44;94019.34;;;-2.85;100.00
51829;BME280;37881;48.024;8.774;2023-03-16T04:34:12;94021.56;;;-2.87;100.00
51829;BME280;37881;48.024;8.774;2023-03-16T04:36:39;94022.97;;;-2.90;100.00
51829;BME280;37881;48.024;8.774;2023-03-16T04:39:07;94013.97;;;-2.85;100.00
51829;BME280;37881;48.024;8.774;2023-03-16T04:41:34;94004.41;;;-2.95;100.00
51829;BME280;37881;48.024;8.774;2023-03-16T04:44:01;94008.19;;;-2.96;100.00
51829;BME280;37881;48.024;8.774;2023-03-16T04:46:27;94009.69;;;-2.86;100.00
51829;BME280;37881;48.024;8.774;2023-03-16T04:48:55;94000.53;;;-2.85;100.00
51829;BME280;37881;48.024;8.774;2023-03-16T04:51:24;94008.28;;;-2.84;100.00
51829;BME280;37881;48.024;8.774;2023-03-16T04:53:51;93992.47;;;-2.85;100.00
51829;BME280;37881;48.024;8.774;2023-03-16T04:56:19;93989.34;;;-2.87;100.00
51829;BME280;37881;48.024;8.774;2023-03-16T04:58:47;93991.44;;;-2.93;100.00
51829;BME280;37881;48.024;8.774;2023-03-16T05:01:14;93994.31;;;-3.19;100.00
51829;BME280;37881;48.024;8.774;2023-03-16T05:03:42;93996.00;;;-3.14;100.00
51829;BME280;37881;48.024;8.774;2023-03-16T05:06:10;94001.78;;;-3.04;100.00
51829;BME280;37881;48.024;8.774;2023-03-16T05:08:38;93990.25;;;-3.04;100.00
51829;BME280;37881;48.024;8.774;2023-03-16T05:11:04;93994.69;;;-3.08;100.00
51829;BME280;37881;48.024;8.774;2023-03-16T05:13:31;93993.47;;;-3.11;100.00
51829;BME280;37881;48.024;8.774;2023-03-16T05:15:58;93989.78;;;-3.06;100.00
51829;BME280;37881;48.024;8.774;2023-03-16T05:18:25;93991.56;;;-3.10;100.00
51829;BME280;37881;48.024;8.774;2023-03-16T05:20:54;93991.44;;;-3.14;100.00
51829;BME280;37881;48.024;8.774;2023-03-16T05:23:23;93991.44;;;-3.14;100.00
51829;BME280;37881;48.024;8.774;2023-03-16T05:25:50;93990.56;;;-3.27;100.00
51829;BME280;37881;48.024;8.774;2023-03-16T05:28:17;93984.81;;;-3.16;100.00
51829;BME280;37881;48.024;8.774;2023-03-16T05:30:44;93982.72;;;-3.11;100.00
51829;BME280;37881;48.024;8.774;2023-03-16T05:33:12;93982.44;;;-3.18;100.00
51829;BME280;37881;48.024;8.774;2023-03-16T05:35:39;93985.09;;;-3.09;100.00
51829;BME280;37881;48.024;8.774;2023-03-16T05:38:06;93984.09;;;-3.05;100.00
51829;BME280;37881;48.024;8.774;2023-03-16T05:40:34;93985.16;;;-2.97;100.00
51829;BME280;37881;48.024;8.774;2023-03-16T05:43:02;93981.28;;;-3.08;100.00
51829;BME280;37881;48.024;8.774;2023-03-16T05:45:30;93990.25;;;-3.04;100.00
51829;BME280;37881;48.024;8.774;2023-03-16T05:47:57;93986.91;;;-3.01;100.00
51829;BME280;37881;48.024;8.774;2023-03-16T05:50:23;93984.16;;;-2.92;100.00
51829;BME280;37881;48.024;8.774;2023-03-16T05:52:50;93983.19;;;-2.88;100.00
51829;BME280;37881;48.024;8.774;2023-03-16T05:55:17;93978.28;;;-2.86;100.00
51829;BME280;37881;48.024;8.774;2023-03-16T05:57:44;93981.16;;;-2.91;100.00
51829;BME280;37881;48.024;8.774;2023-03-16T06:00:12;93976.38;;;-2.85;100.00
51829;BME280;37881;48.024;8.774;2023-03-16T06:02:45;93975.81;;;-2.78;100.00
51829;BME280;37881;48.024;8.774;2023-03-16T06:05:15;93983.81;;;-2.70;100.00
51829;BME280;37881;48.024;8.774;2023-03-16T06:07:42;93982.28;;;-2.58;100.00
51829;BME280;37881;48.024;8.774;2023-03-16T06:10:10;93977.50;;;-2.53;100.00
51829;BME280;37881;48.024;8.774;2023-03-16T06:12:37;93977.47;;;-2.65;100.00
51829;BME280;37881;48.024;8.774;2023-03-16T06:15:05;93985.34;;;-2.48;100.00
51829;BME280;37881;48.024;8.774;2023-03-16T06:17:35;93973.94;;;-2.45;100.00
51829;BME280;37881;48.024;8.774;2023-03-16T06:20:04;93977.09;;;-2.43;100.00
51829;BME280;37881;48.024;8.774;2023-03-16T06:22:40;93976.91;;;-2.25;100.00
51829;BME280;37881;48.024;8.774;2023-03-16T06:25:08;93977.13;;;-2.18;100.00
51829;BME280;37881;48.024;8.774;2023-03-16T06:27:36;93969.94;;;-2.26;100.00
51829;BME280;37881;48.024;8.774;2023-03-16T06:30:04;93975.00;;;-2.25;100.00
51829;BME280;37881;48.024;8.774;2023-03-16T06:32:32;93977.09;;;-2.30;100.00
51829;BME280;37881;48.024;8.774;2023-03-16T06:34:59;93982.91;;;-2.41;100.00
51829;BME280;37881;48.024;8.774;2023-03-16T06:37:28;93986.16;;;-2.47;100.00
51829;BME280;37881;48.024;8.774;2023-03-16T06:39:55;93983.84;;;-2.24;100.00
51829;BME280;37881;48.024;8.774;2023-03-16T06:42:22;93987.88;;;-2.18;100.00
51829;BME280;37881;48.024;8.774;2023-03-16T06:44:49;93986.44;;;-2.15;100.00
51829;BME280;37881;48.024;8.774;2023-03-16T06:47:16;93992.31;;;-1.89;100.00
51829;BME280;37881;48.024;8.774;2023-03-16T06:49:43;93992.34;;;-1.76;100.00
51829;BME280;37881;48.024;8.774;2023-03-16T06:52:09;93993.44;;;-1.77;100.00
51829;BME280;37881;48.024;8.774;2023-03-16T06:54:40;93992.53;;;-1.69;100.00
51829;BME280;37881;48.024;8.774;2023-03-16T06:57:07;93998.03;;;-1.53;100.00
51829;BME280;37881;48.024;8.774;2023-03-16T06:59:34;94000.63;;;-1.45;100.00
51829;BME280;37881;48.024;8.774;2023-03-16T07:02:00;93994.56;;;-1.29;100.00
51829;BME280;37881;48.024;8.774;2023-03-16T07:04:27;93996.44;;;-1.05;100.00
51829;BME280;37881;48.024;8.774;2023-03-16T07:06:54;93996.94;;;-0.87;100.00
51829;BME280;37881;48.024;8.774;2023-03-16T07:09:20;93997.47;;;-0.69;100.00
51829;BME280;37881;48.024;8.774;2023-03-16T07:11:47;93994.19;;;-0.63;100.00
51829;BME280;37881;48.024;8.774;2023-03-16T07:14:14;94006.66;;;-0.58;100.00
51829;BME280;37881;48.024;8.774;2023-03-16T07:16:41;94005.53;;;-0.69;100.00
51829;BME280;37881;48.024;8.774;2023-03-16T07:19:07;94003.63;;;-0.41;100.00
51829;BME280;37881;48.024;8.774;2023-03-16T07:21:34;94001.78;;;-0.24;100.00
51829;BME280;37881;48.024;8.774;2023-03-16T07:24:07;94001.19;;;-0.17;100.00
51829;BME280;37881;48.024;8.774;2023-03-16T07:26:34;94004.97;;;0.26;100.00
51829;BME280;37881;48.024;8.774;2023-03-16T07:29:01;94002.81;;;0.47;100.00
51829;BME280;37881;48.024;8.774;2023-03-16T07:31:30;94002.09;;;0.50;100.00
51829;BME280;37881;48.024;8.774;2023-03-16T07:33:58;93999.59;;;1.09;100.00
51829;BME280;37881;48.024;8.774;2023-03-16T07:36:25;93996.34;;;1.19;100.00
51829;BME280;37881;48.024;8.774;2023-03-16T07:38:52;93998.06;;;3.62;100.00
51829;BME280;37881;48.024;8.774;2023-03-16T07:41:18;93990.22;;;5.97;93.52
51829;BME280;37881;48.024;8.774;2023-03-16T07:43:45;93990.53;;;7.97;84.09
51829;BME280;37881;48.024;8.774;2023-03-16T07:46:12;93975.91;;;10.09;67.07
51829;BME280;37881;48.024;8.774;2023-03-16T07:48:40;93993.22;;;10.64;57.32
51829;BME280;37881;48.024;8.774;2023-03-16T07:51:09;93987.94;;;11.51;54.28
51829;BME280;37881;48.024;8.774;2023-03-16T07:53:37;93983.28;;;11.92;54.17
51829;BME280;37881;48.024;8.774;2023-03-16T07:56:04;93985.72;;;12.46;49.76
51829;BME280;37881;48.024;8.774;2023-03-16T07:58:31;93985.75;;;12.26;49.88
51829;BME280;37881;48.024;8.774;2023-03-16T08:00:58;93984.97;;;13.15;47.03
51829;BME280;37881;48.024;8.774;2023-03-16T08:03:27;93987.25;;;12.84;46.85
51829;BME280;37881;48.024;8.774;2023-03-16T08:05:54;93986.31;;;15.11;43.99
51829;BME280;37881;48.024;8.774;2023-03-16T08:08:21;93984.50;;;16.57;38.86
51829;BME280;37881;48.024;8.774;2023-03-16T08:10:49;93976.31;;;15.40;40.65
51829;BME280;37881;48.024;8.774;2023-03-16T08:13:18;93978.50;;;16.81;37.67
51829;BME280;37881;48.024;8.774;2023-03-16T08:15:46;93969.03;;;17.00;37.28
51829;BME280;37881;48.024;8.774;2023-03-16T08:18:13;93978.66;;;15.28;36.74
51829;BME280;37881;48.024;8.774;2023-03-16T08:20:40;93971.56;;;15.40;38.64
51829;BME280;37881;48.024;8.774;2023-03-16T08:23:07;93964.97;;;18.19;32.23
51829;BME280;37881;48.024;8.774;2023-03-16T08:25:34;93953.31;;;19.52;30.23
51829;BME280;37881;48.024;8.774;2023-03-16T08:28:01;93949.41;;;19.25;30.19
51829;BME280;37881;48.024;8.774;2023-03-16T08:30:27;93951.28;;;20.01;29.02
51829;BME280;37881;48.024;8.774;2023-03-16T08:32:56;93951.59;;;17.31;30.72
51829;BME280;37881;48.024;8.774;2023-03-16T08:35:23;93951.19;;;17.60;31.40
51829;BME280;37881;48.024;8.774;2023-03-16T08:37:50;93954.00;;;18.06;29.58
51829;BME280;37881;48.024;8.774;2023-03-16T08:40:17;93948.91;;;17.09;31.28
51829;BME280;37881;48.024;8.774;2023-03-16T08:42:44;93934.69;;;19.34;28.58
51829;BME280;37881;48.024;8.774;2023-03-16T08:45:11;93925.16;;;19.50;28.63
51829;BME280;37881;48.024;8.774;2023-03-16T08:47:40;93920.53;;;20.64;26.45
51829;BME280;37881;48.024;8.774;2023-03-16T08:50:09;93916.81;;;19.98;27.23
51829;BME280;37881;48.024;8.774;2023-03-16T08:52:36;93924.09;;;16.43;28.71
51829;BME280;37881;48.024;8.774;2023-03-16T08:55:04;93924.59;;;15.62;30.80
51829;BME280;37881;48.024;8.774;2023-03-16T08:57:32;93937.00;;;14.04;32.22
51829;BME280;37881;48.024;8.774;2023-03-16T08:59:59;93923.09;;;16.05;30.29
51829;BME280;37881;48.024;8.774;2023-03-16T09:02:26;93928.28;;;14.60;31.86
51829;BME280;37881;48.024;8.774;2023-03-16T09:04:53;93922.75;;;15.11;31.40
51829;BME280;37881;48.024;8.774;2023-03-16T09:07:20;93927.09;;;13.15;33.41
51829;BME280;37881;48.024;8.774;2023-03-16T09:09:47;93922.78;;;11.92;35.61
51829;BME280;37881;48.024;8.774;2023-03-16T09:12:14;93918.25;;;11.82;36.20
51829;BME280;37881;48.024;8.774;2023-03-16T09:14:40;93917.81;;;12.76;34.79
51829;BME280;37881;48.024;8.774;2023-03-16T09:17:07;93924.84;;;12.44;35.54
51829;BME280;37881;48.024;8.774;2023-03-16T09:19:34;93920.94;;;11.65;36.43
51829;BME280;37881;48.024;8.774;2023-03-16T09:22:20;93927.75;;;13.68;35.97
51829;BME280;37881;48.024;8.774;2023-03-16T09:24:47;93916.00;;;16.48;31.18
51829;BME280;37881;48.024;8.774;2023-03-16T09:27:15;93919.00;;;18.00;28.88
51829;BME280;37881;48.024;8.774;2023-03-16T09:29:42;93914.19;;;19.70;27.81
51829;BME280;37881;48.024;8.774;2023-03-16T09:32:11;93924.84;;;17.92;28.92
51829;BME280;37881;48.024;8.774;2023-03-16T09:34:38;93923.31;;;19.23;26.73
51829;BME280;37881;48.024;8.774;2023-03-16T09:37:05;93924.66;;;16.28;29.17
51829;BME280;37881;48.024;8.774;2023-03-16T09:39:32;93919.47;;;16.71;29.29
51829;BME280;37881;48.024;8.774;2023-03-16T09:47:24;93914.63;;;19.30;25.27
51829;BME280;37881;48.024;8.774;2023-03-16T09:49:59;93922.91;;;20.41;23.77
51829;BME280;37881;48.024;8.774;2023-03-16T09:52:40;93933.28;;;18.44;24.65
51829;BME280;37881;48.024;8.774;2023-03-16T09:55:29;93936.22;;;12.95;33.39
51829;BME280;37881;48.024;8.774;2023-03-16T09:57:58;93930.53;;;19.29;25.65
51829;BME280;37881;48.024;8.774;2023-03-16T10:00:31;93918.75;;;19.34;24.56
51829;BME280;37881;48.024;8.774;2023-03-16T10:03:24;93908.47;;;19.74;24.25
51829;BME280;37881;48.024;8.774;2023-03-16T10:06:01;93908.22;;;21.21;21.76
51829;BME280;37881;48.024;8.774;2023-03-16T10:08:38;93903.56;;;21.32;21.49
51829;BME280;37881;48.024;8.774;2023-03-16T10:13:52;93901.06;;;18.38;23.92
51829;BME280;37881;48.024;8.774;2023-03-16T10:16:26;93902.84;;;17.11;25.23
51829;BME280;37881;48.024;8.774;2023-03-16T10:19:17;93904.75;;;18.34;24.32
51829;BME280;37881;48.024;8.774;2023-03-16T10:21:45;93896.13;;;15.40;27.67
51829;BME280;37881;48.024;8.774;2023-03-16T10:24:41;93891.41;;;15.27;27.26
51829;BME280;37881;48.024;8.774;2023-03-16T10:27:17;93884.25;;;16.81;26.23
51829;BME280;37881;48.024;8.774;2023-03-16T10:29:46;93874.66;;;15.78;26.37
51829;BME280;37881;48.024;8.774;2023-03-16T10:32:15;93885.50;;;16.17;26.33
51829;BME280;37881;48.024;8.774;2023-03-16T10:34:46;93880.03;;;15.47;26.76
51829;BME280;37881;48.024;8.774;2023-03-16T10:37:14;93869.63;;;18.65;23.75
51829;BME280;37881;48.024;8.774;2023-03-16T10:39:41;93881.44;;;16.71;24.45
51829;BME280;37881;48.024;8.774;2023-03-16T10:42:18;93882.53;;;17.14;26.02
51829;BME280;37881;48.024;8.774;2023-03-16T10:44:46;93888.03;;;15.80;26.01
51829;BME280;37881;48.024;8.774;2023-03-16T10:47:21;93876.13;;;17.73;24.56
51829;BME280;37881;48.024;8.774;2023-03-16T10:49:49;93889.53;;;15.59;26.28
51829;BME280;37881;48.024;8.774;2023-03-16T10:52:23;93871.91;;;15.66;27.13
51829;BME280;37881;48.024;8.774;2023-03-16T10:54:59;93862.56;;;17.93;24.83
51829;BME280;37881;48.024;8.774;2023-03-16T10:57:33;93867.59;;;16.71;25.61
51829;BME280;37881;48.024;8.774;2023-03-16T11:00:28;93863.22;;;15.54;26.07
51829;BME280;37881;48.024;8.774;2023-03-16T11:02:58;93861.97;;;16.53;25.26
51829;BME280;37881;48.024;8.774;2023-03-16T11:05:31;93848.13;;;16.53;24.97
51829;BME280;37881;48.024;8.774;2023-03-16T11:08:11;93848.66;;;17.47;25.00
51829;BME280;37881;48.024;8.774;2023-03-16T11:10:40;93864.97;;;16.05;26.88
51829;BME280;37881;48.024;8.774;2023-03-16T11:13:23;93874.66;;;15.44;27.44
51829;BME280;37881;48.024;8.774;2023-03-16T11:15:57;93859.25;;;14.60;28.34
51829;BME280;37881;48.024;8.774;2023-03-16T11:18:34;93861.19;;;15.33;27.78
51829;BME280;37881;48.024;8.774;2023-03-16T11:21:10;93871.47;;;14.21;28.82
51829;BME280;37881;48.024;8.774;2023-03-16T11:23:41;93863.75;;;17.28;27.03
51829;BME280;37881;48.024;8.774;2023-03-16T11:26:16;93853.25;;;15.22;28.40
51829;BME280;37881;48.024;8.774;2023-03-16T11:28:50;93849.31;;;15.67;28.58
51829;BME280;37881;48.024;8.774;2023-03-16T11:31:27;93848.97;;;16.31;27.58
51829;BME280;37881;48.024;8.774;2023-03-16T11:34:13;93846.19;;;16.00;27.29
51829;BME280;37881;48.024;8.774;2023-03-16T11:39:44;93834.44;;;16.99;27.57
51829;BME280;37881;48.024;8.774;2023-03-16T11:42:22;93836.03;;;19.35;25.36
51829;BME280;37881;48.024;8.774;2023-03-16T11:44:56;93842.31;;;18.02;25.30
51829;BME280;37881;48.024;8.774;2023-03-16T11:55:31;93820.78;;;13.47;31.46
51829;BME280;37881;48.024;8.774;2023-03-16T12:06:13;93834.13;;;11.84;32.17
51829;BME280;37881;48.024;8.774;2023-03-16T12:09:12;93830.50;;;12.07;33.08
51829;BME280;37881;48.024;8.774;2023-03-16T12:11:53;93831.56;;;11.37;33.20
51829;BME280;37881;48.024;8.774;2023-03-16T12:14:26;93823.38;;;11.93;30.87
51829;BME280;37881;48.024;8.774;2023-03-16T12:16:59;93821.31;;;11.77;30.42
51829;BME280;37881;48.024;8.774;2023-03-16T12:19:48;93817.91;;;11.33;33.49
51829;BME280;37881;48.024;8.774;2023-03-16T12:22:27;93820.28;;;11.71;33.33
51829;BME280;37881;48.024;8.774;2023-03-16T12:24:56;93809.44;;;11.44;32.03
51829;BME280;37881;48.024;8.774;2023-03-16T12:27:28;93814.84;;;11.68;31.65
51829;BME280;37881;48.024;8.774;2023-03-16T12:33:02;93819.19;;;11.85;30.92
51829;BME280;37881;48.024;8.774;2023-03-16T12:35:55;93814.44;;;11.89;30.62
51829;BME280;37881;48.024;8.774;2023-03-16T12:38:43;93814.44;;;11.29;31.36
51829;BME280;37881;48.024;8.774;2023-03-16T12:46:23;93808.34;;;11.78;29.44
51829;BME280;37881;48.024;8.774;2023-03-16T12:48:55;93796.66;;;12.10;29.37
51829;BME280;37881;48.024;8.774;2023-03-16T12:54:01;93791.44;;;12.32;29.76
51829;BME280;37881;48.024;8.774;2023-03-16T12:56:31;93790.91;;;12.70;28.40
51829;BME280;37881;48.024;8.774;2023-03-16T12:59:01;93791.28;;;12.39;29.23
51829;BME280;37881;48.024;8.774;2023-03-16T13:01:36;93798.72;;;12.23;29.90
51829;BME280;37881;48.024;8.774;2023-03-16T13:04:16;93787.19;;;11.18;30.92
51829;BME280;37881;48.024;8.774;2023-03-16T13:06:50;93787.47;;;11.44;31.19
51829;BME280;37881;48.024;8.774;2023-03-16T13:09:26;93790.97;;;11.45;31.44
51829;BME280;37881;48.024;8.774;2023-03-16T13:11:54;93788.38;;;11.57;31.28
51829;BME280;37881;48.024;8.774;2023-03-16T13:14:41;93784.78;;;11.77;31.41
51829;BME280;37881;48.024;8.774;2023-03-16T13:19:45;93785.28;;;11.92;31.71
51829;BME280;37881;48.024;8.774;2023-03-16T13:22:29;93785.13;;;11.43;29.86
51829;BME280;37881;48.024;8.774;2023-03-16T13:25:39;93783.81;;;11.87;30.30
51829;BME280;37881;48.024;8.774;2023-03-16T13:28:13;93783.88;;;11.84;30.34
51829;BME280;37881;48.024;8.774;2023-03-16T13:30:47;93785.31;;;12.08;30.44
51829;BME280;37881;48.024;8.774;2023-03-16T13:33:23;93778.16;;;11.94;30.80
51829;BME280;37881;48.024;8.774;2023-03-16T13:35:53;93778.91;;;11.95;31.87
51829;BME280;37881;48.024;8.774;2023-03-16T13:38:22;93783.22;;;11.96;31.96
51829;BME280;37881;48.024;8.774;2023-03-16T13:41:12;93780.41;;;12.16;31.52
51829;BME280;37881;48.024;8.774;2023-03-16T13:43:42;93774.34;;;11.88;31.69
51829;BME280;37881;48.024;8.774;2023-03-16T13:46:17;93772.22;;;11.59;31.29
51829;BME280;37881;48.024;8.774;2023-03-16T13:48:46;93768.59;;;11.63;31.77
51829;BME280;37881;48.024;8.774;2023-03-16T13:51:16;93769.31;;;11.67;30.90
51829;BME280;37881;48.024;8.774;2023-03-16T13:53:44;93767.59;;;11.36;30.56
51829;BME280;37881;48.024;8.774;2023-03-16T13:56:25;93773.66;;;11.48;30.84